createdAt,value
2019-06-26T00:02:00.784Z,27.52
2019-06-26T00:04:51.227Z,27.48
2019-06-26T00:07:41.691Z,27.42
2019-06-26T00:10:30.799Z,27.37
2019-06-26T00:13:26.074Z,27.33
2019-06-26T00:16:12.384Z,27.28
2019-06-26T00:19:02.003Z,27.24
2019-06-26T00:21:52.074Z,27.20
2019-06-26T00:24:42.471Z,27.14
2019-06-26T00:27:32.606Z,27.08
2019-06-26T00:30:22.653Z,27.03
2019-06-26T00:33:12.525Z,27.01
2019-06-26T00:36:02.425Z,26.98
2019-06-26T00:38:52.374Z,26.95
2019-06-26T00:41:41.853Z,26.93
2019-06-26T00:44:31.879Z,26.91
2019-06-26T00:47:21.729Z,26.88
2019-06-26T00:50:12.608Z,26.86
2019-06-26T00:53:02.598Z,26.81
2019-06-26T00:55:55.188Z,26.79
2019-06-26T00:58:44.379Z,26.75
2019-06-26T01:01:34.296Z,26.73
2019-06-26T01:04:33.490Z,26.71
2019-06-26T01:07:23.443Z,26.67
2019-06-26T01:10:13.510Z,26.64
2019-06-26T01:13:04.172Z,26.63
2019-06-26T01:15:54.043Z,26.59
2019-06-26T01:18:43.787Z,26.54
2019-06-26T01:21:33.773Z,26.50
2019-06-26T01:24:23.674Z,26.42
2019-06-26T01:27:13.053Z,26.37
2019-06-26T01:30:02.912Z,26.31
2019-06-26T01:32:53.246Z,26.29
2019-06-26T01:35:43.005Z,26.27
2019-06-26T01:38:33.140Z,26.25
2019-06-26T01:41:23.067Z,26.24
2019-06-26T01:44:15.394Z,26.21
2019-06-26T01:47:04.554Z,26.17
2019-06-26T01:49:54.587Z,26.15
2019-06-26T01:52:45.601Z,26.11
2019-06-26T01:55:35.478Z,26.08
2019-06-26T01:58:25.072Z,26.08
2019-06-26T02:01:15.261Z,26.06
2019-06-26T02:04:05.541Z,26.03
2019-06-26T02:06:55.433Z,26.01
2019-06-26T02:09:45.454Z,25.99
2019-06-26T02:12:34.952Z,25.96
2019-06-26T02:15:24.614Z,25.96
2019-06-26T02:18:52.248Z,25.93
2019-06-26T02:21:41.845Z,25.90
2019-06-26T02:24:31.651Z,25.84
2019-06-26T02:27:20.912Z,25.81
2019-06-26T02:30:11.251Z,25.76
2019-06-26T02:33:01.205Z,25.75
2019-06-26T02:35:51.119Z,25.73
2019-06-26T02:38:40.807Z,25.72
2019-06-26T02:41:30.991Z,25.69
2019-06-26T02:44:20.686Z,25.67
2019-06-26T02:47:19.213Z,25.65
2019-06-26T02:50:02.540Z,25.61
2019-06-26T02:52:53.040Z,25.60
2019-06-26T02:55:43.165Z,25.57
2019-06-26T02:58:33.024Z,25.55
2019-06-26T03:01:22.723Z,25.53
2019-06-26T03:04:12.252Z,25.51
2019-06-26T03:07:01.974Z,25.50
2019-06-26T03:09:51.881Z,25.46
2019-06-26T03:12:41.715Z,25.44
2019-06-26T03:15:31.311Z,25.43
2019-06-26T03:18:20.945Z,25.42
2019-06-26T03:21:11.520Z,25.41
2019-06-26T03:24:01.137Z,25.41
2019-06-26T03:26:51.086Z,25.41
2019-06-26T03:29:41.075Z,25.40
2019-06-26T03:32:31.133Z,25.39
2019-06-26T03:35:20.818Z,25.37
2019-06-26T03:38:10.760Z,25.38
2019-06-26T03:41:00.166Z,25.38
2019-06-26T03:43:49.907Z,25.39
2019-06-26T03:46:39.826Z,25.38
2019-06-26T03:49:29.584Z,25.40
2019-06-26T03:52:19.099Z,25.41
2019-06-26T03:55:10.729Z,25.45
2019-06-26T03:58:00.641Z,25.47
2019-06-26T04:00:50.499Z,25.50
2019-06-26T04:03:39.699Z,25.53
2019-06-26T04:06:32.083Z,25.56
2019-06-26T04:09:25.127Z,25.59
2019-06-26T04:12:14.938Z,25.62
2019-06-26T04:15:05.667Z,25.66
2019-06-26T04:17:55.844Z,25.73
2019-06-26T04:20:45.560Z,25.81
2019-06-26T04:23:35.483Z,25.86
2019-06-26T04:26:25.548Z,25.93
2019-06-26T04:29:15.552Z,26.00
2019-06-26T04:32:05.569Z,26.04
2019-06-26T04:34:55.828Z,26.11
2019-06-26T04:37:45.701Z,26.18
2019-06-26T04:40:35.422Z,26.26
2019-06-26T04:43:25.361Z,26.35
2019-06-26T04:46:15.366Z,26.43
2019-06-26T04:49:06.539Z,26.52
2019-06-26T04:51:56.622Z,26.61
2019-06-26T04:54:46.246Z,26.72
2019-06-26T04:57:36.206Z,26.83
2019-06-26T05:00:26.261Z,26.94
2019-06-26T05:03:16.182Z,27.06
2019-06-26T05:06:06.311Z,27.20
2019-06-26T05:08:56.039Z,27.35
2019-06-26T05:11:45.645Z,27.50
2019-06-26T05:14:35.439Z,27.65
2019-06-26T05:17:25.583Z,27.77
2019-06-26T05:20:16.587Z,27.92
2019-06-26T05:23:06.674Z,28.07
2019-06-26T05:25:56.854Z,28.18
2019-06-26T05:28:46.550Z,28.29
2019-06-26T05:31:36.608Z,28.37
2019-06-26T05:34:26.691Z,28.51
2019-06-26T05:37:16.108Z,28.65
2019-06-26T05:40:08.678Z,28.81
2019-06-26T05:42:58.725Z,28.96
2019-06-26T05:45:49.343Z,29.12
2019-06-26T05:48:38.834Z,29.27
2019-06-26T05:51:28.346Z,29.43
2019-06-26T05:54:18.020Z,29.56
2019-06-26T05:57:08.054Z,29.74
2019-06-26T05:59:58.969Z,29.88
2019-06-26T06:02:48.794Z,30.03
2019-06-26T06:05:38.212Z,30.19
2019-06-26T06:08:28.352Z,30.34
2019-06-26T06:11:18.087Z,30.51
2019-06-26T06:14:07.538Z,30.66
2019-06-26T06:16:57.846Z,30.84
2019-06-26T06:19:47.796Z,30.98
2019-06-26T06:22:37.636Z,31.14
2019-06-26T06:25:27.850Z,31.28
2019-06-26T06:28:17.504Z,31.45
2019-06-26T06:31:07.503Z,31.62
2019-06-26T06:33:57.177Z,31.79
2019-06-26T06:36:46.575Z,31.92
2019-06-26T06:39:36.464Z,32.01
2019-06-26T06:42:26.425Z,32.14
2019-06-26T06:45:17.526Z,32.28
2019-06-26T06:48:07.884Z,32.41
2019-06-26T06:50:58.075Z,32.56
2019-06-26T06:53:48.134Z,32.73
2019-06-26T06:56:38.364Z,32.87
2019-06-26T06:59:28.621Z,33.01
2019-06-26T07:02:18.655Z,33.07
2019-06-26T07:05:09.224Z,33.15
2019-06-26T07:07:59.258Z,33.28
2019-06-26T07:10:48.874Z,33.40
2019-06-26T07:13:38.901Z,33.49
2019-06-26T07:16:28.840Z,33.62
2019-06-26T07:19:18.505Z,33.74
2019-06-26T07:22:08.960Z,33.88
2019-06-26T07:24:58.983Z,34.05
2019-06-26T07:27:49.028Z,34.25
2019-06-26T07:30:38.468Z,34.46
2019-06-26T07:33:28.323Z,34.64
2019-06-26T07:36:17.628Z,34.84
2019-06-26T07:39:08.295Z,35.04
2019-06-26T07:41:59.450Z,35.21
2019-06-26T07:44:49.284Z,35.34
2019-06-26T07:47:43.821Z,35.50
2019-06-26T07:50:32.555Z,35.61
2019-06-26T07:53:22.790Z,35.75
2019-06-26T07:56:12.671Z,35.88
2019-06-26T07:59:02.605Z,36.01
2019-06-26T08:01:52.711Z,36.13
2019-06-26T08:04:43.036Z,36.27
2019-06-26T08:07:33.094Z,36.44
2019-06-26T08:10:23.319Z,36.59
2019-06-26T08:13:13.427Z,36.76
2019-06-26T08:16:03.467Z,36.98
2019-06-26T08:18:53.459Z,37.14
2019-06-26T08:21:46.598Z,37.24
2019-06-26T08:24:35.627Z,37.38
2019-06-26T08:27:25.788Z,37.55
2019-06-26T08:30:16.676Z,37.72
2019-06-26T08:33:06.945Z,37.80
2019-06-26T08:35:56.643Z,37.90
2019-06-26T08:38:47.642Z,38.02
2019-06-26T08:41:37.504Z,38.18
2019-06-26T08:44:27.350Z,38.47
2019-06-26T08:47:17.222Z,38.80
2019-06-26T08:50:07.457Z,38.91
2019-06-26T08:52:57.733Z,38.93
2019-06-26T08:55:48.066Z,38.94
2019-06-26T08:58:38.289Z,39.04
2019-06-26T09:01:28.081Z,39.20
2019-06-26T09:04:17.820Z,39.40
2019-06-26T09:07:07.858Z,39.62
2019-06-26T09:09:57.736Z,39.86
2019-06-26T09:12:47.919Z,40.11
2019-06-26T09:15:38.056Z,40.31
2019-06-26T09:18:35.350Z,40.48
2019-06-26T09:21:20.285Z,40.57
2019-06-26T09:24:10.429Z,40.61
2019-06-26T09:27:00.328Z,40.64
2019-06-26T09:29:49.827Z,40.70
2019-06-26T09:32:39.663Z,40.78
2019-06-26T09:35:29.959Z,40.87
2019-06-26T09:38:19.714Z,40.92
2019-06-26T09:41:09.594Z,40.96
2019-06-26T09:43:59.558Z,40.98
2019-06-26T09:46:49.988Z,40.98
2019-06-26T09:49:39.871Z,40.99
2019-06-26T09:52:29.664Z,41.04
2019-06-26T09:55:20.831Z,41.16
2019-06-26T09:58:13.293Z,41.31
2019-06-26T10:01:02.429Z,41.47
2019-06-26T10:03:52.227Z,41.64
2019-06-26T10:06:42.360Z,41.78
2019-06-26T10:09:32.306Z,41.80
2019-06-26T10:12:22.374Z,41.86
2019-06-26T10:15:15.556Z,41.91
2019-06-26T10:18:05.979Z,42.02
2019-06-26T10:20:56.041Z,42.10
2019-06-26T10:23:45.952Z,42.38
2019-06-26T10:26:35.926Z,42.66
2019-06-26T10:29:25.976Z,42.92
2019-06-26T10:32:15.859Z,43.13
2019-06-26T10:35:06.378Z,43.36
2019-06-26T10:37:55.779Z,43.40
2019-06-26T10:40:44.931Z,43.46
2019-06-26T10:43:35.224Z,43.48
2019-06-26T10:46:25.768Z,43.63
2019-06-26T10:49:26.434Z,43.83
2019-06-26T10:52:07.863Z,44.01
2019-06-26T10:54:57.772Z,44.23
2019-06-26T10:57:47.249Z,44.39
2019-06-26T11:00:37.244Z,44.53
2019-06-26T11:03:27.407Z,44.67
2019-06-26T11:06:17.004Z,44.78
2019-06-26T11:09:08.815Z,44.89
2019-06-26T11:11:58.967Z,45.00
2019-06-26T11:14:49.454Z,45.04
2019-06-26T11:17:39.584Z,45.08
2019-06-26T11:20:29.951Z,45.29
2019-06-26T11:23:19.483Z,45.38
2019-06-26T11:26:09.537Z,45.65
2019-06-26T11:28:59.751Z,45.85
2019-06-26T11:31:49.528Z,46.12
2019-06-26T11:34:39.313Z,46.78
2019-06-26T11:37:30.238Z,47.53
2019-06-26T11:40:20.765Z,48.26
2019-06-26T11:43:10.239Z,48.87
2019-06-26T11:46:00.103Z,49.49
2019-06-26T11:48:49.868Z,50.10
2019-06-26T11:51:39.969Z,50.68
2019-06-26T11:54:29.916Z,51.03
2019-06-26T11:57:19.571Z,51.37
2019-06-26T12:00:11.890Z,51.64
2019-06-26T12:03:01.793Z,51.84
2019-06-26T12:05:52.057Z,51.94
2019-06-26T12:08:42.073Z,52.01
2019-06-26T12:11:32.025Z,52.22
2019-06-26T12:14:21.746Z,52.23
2019-06-26T12:17:11.764Z,52.00
2019-06-26T12:20:17.009Z,51.84
2019-06-26T12:22:54.218Z,51.65
2019-06-26T12:25:44.606Z,51.28
2019-06-26T12:28:34.522Z,50.94
2019-06-26T12:31:24.964Z,50.46
2019-06-26T12:34:14.847Z,49.92
2019-06-26T12:37:04.811Z,49.57
2019-06-26T12:39:54.775Z,49.24
2019-06-26T12:42:44.673Z,48.86
2019-06-26T12:45:34.720Z,48.35
2019-06-26T12:48:24.421Z,48.04
2019-06-26T12:51:14.740Z,47.86
2019-06-26T12:54:05.528Z,47.58
2019-06-26T12:56:55.735Z,47.22
2019-06-26T12:59:56.530Z,46.79
2019-06-26T13:02:36.410Z,46.54
2019-06-26T13:05:26.010Z,46.25
2019-06-26T13:08:15.703Z,46.07
2019-06-26T13:11:05.747Z,45.91
2019-06-26T13:14:02.543Z,45.82
2019-06-26T13:16:47.233Z,45.63
2019-06-26T13:19:37.116Z,45.45
2019-06-26T13:22:26.898Z,45.35
2019-06-26T13:25:16.894Z,45.19
2019-06-26T13:28:06.296Z,45.12
2019-06-26T13:30:55.621Z,45.13
2019-06-26T13:33:45.351Z,45.16
2019-06-26T13:36:35.327Z,45.32
2019-06-26T13:39:25.514Z,45.71
2019-06-26T13:42:15.485Z,45.95
2019-06-26T13:45:05.877Z,46.09
2019-06-26T13:47:55.866Z,46.37
2019-06-26T13:50:45.951Z,46.86
2019-06-26T13:53:35.792Z,47.41
2019-06-26T13:56:25.577Z,47.98
2019-06-26T13:59:15.420Z,48.45
2019-06-26T14:02:05.638Z,48.79
2019-06-26T14:04:55.404Z,48.98
2019-06-26T14:07:46.312Z,49.22
2019-06-26T14:10:36.231Z,49.41
2019-06-26T14:13:25.735Z,49.45
2019-06-26T14:16:15.461Z,49.51
2019-06-26T14:19:05.347Z,49.40
2019-06-26T14:21:54.856Z,49.20
2019-06-26T14:24:44.412Z,48.96
2019-06-26T14:27:34.321Z,48.69
2019-06-26T14:30:27.850Z,48.41
2019-06-26T14:33:16.290Z,48.09
2019-06-26T14:36:07.402Z,47.80
2019-06-26T14:38:57.388Z,47.55
2019-06-26T14:41:47.406Z,47.20
2019-06-26T14:44:37.164Z,46.94
2019-06-26T14:47:27.146Z,46.61
2019-06-26T14:50:35.688Z,46.30
2019-06-26T14:53:25.613Z,46.03
2019-06-26T14:56:15.809Z,45.71
2019-06-26T14:59:05.803Z,45.48
2019-06-26T15:01:55.977Z,45.21
2019-06-26T15:04:46.270Z,44.95
2019-06-26T15:07:36.151Z,44.70
2019-06-26T15:10:27.404Z,44.55
2019-06-26T15:13:18.979Z,44.41
2019-06-26T15:16:09.164Z,44.25
2019-06-26T15:18:59.104Z,44.09
2019-06-26T15:21:58.250Z,43.94
2019-06-26T15:24:41.453Z,43.83
2019-06-26T15:27:31.328Z,43.75
2019-06-26T15:30:21.998Z,43.61
2019-06-26T15:33:12.025Z,43.55
2019-06-26T15:36:02.214Z,43.49
2019-06-26T15:38:52.229Z,43.38
2019-06-26T15:41:43.920Z,43.31
2019-06-26T15:44:33.431Z,43.21
2019-06-26T15:47:23.494Z,43.07
2019-06-26T15:50:13.620Z,42.94
2019-06-26T15:53:03.342Z,42.86
2019-06-26T15:55:52.924Z,42.79
2019-06-26T15:58:42.859Z,42.75
2019-06-26T16:01:33.863Z,42.70
2019-06-26T16:04:23.560Z,42.58
2019-06-26T16:07:13.014Z,42.50
2019-06-26T16:10:02.637Z,42.44
2019-06-26T16:12:52.333Z,42.40
2019-06-26T16:15:42.523Z,42.35
2019-06-26T16:18:37.514Z,42.28
2019-06-26T16:21:27.035Z,42.23
2019-06-26T16:24:17.350Z,42.17
2019-06-26T16:27:07.513Z,42.10
2019-06-26T16:29:57.501Z,42.07
2019-06-26T16:32:47.777Z,42.04
2019-06-26T16:35:37.920Z,41.97
2019-06-26T16:38:27.487Z,41.85
2019-06-26T16:41:17.000Z,41.73
2019-06-26T16:44:09.950Z,41.61
2019-06-26T16:46:59.921Z,41.47
2019-06-26T16:49:50.750Z,41.39
2019-06-26T16:52:49.277Z,41.22
2019-06-26T16:55:33.410Z,41.14
2019-06-26T16:58:23.619Z,41.03
2019-06-26T17:01:13.706Z,40.90
2019-06-26T17:04:04.003Z,40.73
2019-06-26T17:06:54.477Z,40.65
2019-06-26T17:09:44.521Z,40.57
2019-06-26T17:12:36.176Z,40.49
2019-06-26T17:15:25.893Z,40.39
2019-06-26T17:18:15.983Z,40.25
2019-06-26T17:21:05.696Z,40.13
2019-06-26T17:23:55.786Z,39.96
2019-06-26T17:26:45.988Z,39.77
2019-06-26T17:29:35.508Z,39.63
2019-06-26T17:32:25.954Z,39.49
2019-06-26T17:35:15.786Z,39.32
2019-06-26T17:38:05.997Z,39.23
2019-06-26T17:40:59.366Z,39.12
2019-06-26T17:43:47.410Z,39.02
2019-06-26T17:46:38.176Z,38.90
2019-06-26T17:49:27.917Z,38.78
2019-06-26T17:52:18.152Z,38.65
2019-06-26T17:55:11.897Z,38.54
2019-06-26T17:58:02.049Z,38.46
2019-06-26T18:00:52.092Z,38.41
2019-06-26T18:03:42.800Z,38.33
2019-06-26T18:06:33.115Z,38.19
2019-06-26T18:09:23.361Z,38.07
2019-06-26T18:12:12.942Z,37.97
2019-06-26T18:15:02.199Z,37.86
2019-06-26T18:17:51.971Z,37.76
2019-06-26T18:20:42.071Z,37.63
2019-06-26T18:23:37.704Z,37.53
2019-06-26T18:26:24.776Z,37.41
2019-06-26T18:29:14.878Z,37.32
2019-06-26T18:32:13.334Z,37.22
2019-06-26T18:35:03.455Z,37.10
2019-06-26T18:37:55.831Z,37.00
2019-06-26T18:40:46.305Z,36.93
2019-06-26T18:43:36.415Z,36.83
2019-06-26T18:46:39.991Z,36.73
2019-06-26T18:49:29.814Z,36.68
2019-06-26T18:52:20.328Z,36.53
2019-06-26T18:55:53.947Z,36.45
2019-06-26T18:58:46.025Z,36.36
2019-06-26T19:01:35.551Z,36.22
2019-06-26T19:04:26.138Z,36.15
2019-06-26T19:07:16.547Z,36.04
2019-06-26T19:10:08.417Z,35.91
2019-06-26T19:12:58.453Z,35.84
2019-06-26T19:15:48.172Z,35.77
2019-06-26T19:18:37.685Z,35.74
2019-06-26T19:21:27.655Z,35.67
2019-06-26T19:24:17.480Z,35.58
2019-06-26T19:27:07.775Z,35.48
2019-06-26T19:29:58.001Z,35.41
2019-06-26T19:32:47.942Z,35.35
2019-06-26T19:35:37.652Z,35.31
2019-06-26T19:38:27.188Z,35.23
2019-06-26T19:41:16.707Z,35.18
2019-06-26T19:44:08.794Z,35.10
2019-06-26T19:46:57.567Z,35.03
2019-06-26T19:49:47.640Z,34.99
2019-06-26T19:52:37.940Z,34.93
2019-06-26T19:55:27.771Z,34.87
2019-06-26T19:58:20.505Z,34.78
2019-06-26T20:01:08.419Z,34.72
2019-06-26T20:03:58.599Z,34.62
2019-06-26T20:06:48.422Z,34.53
2019-06-26T20:09:39.912Z,34.45
2019-06-26T20:12:29.566Z,34.38
2019-06-26T20:15:20.019Z,34.27
2019-06-26T20:18:28.011Z,34.19
2019-06-26T20:21:20.370Z,34.09
2019-06-26T20:24:10.447Z,34.01
2019-06-26T20:27:00.365Z,33.95
2019-06-26T20:29:50.090Z,33.81
2019-06-26T20:32:40.006Z,33.68
2019-06-26T20:35:31.911Z,33.63
2019-06-26T20:38:22.323Z,33.52
2019-06-26T20:41:11.814Z,33.42
2019-06-26T20:44:01.581Z,33.35
2019-06-26T20:46:51.683Z,33.24
2019-06-26T20:49:52.727Z,33.18
2019-06-26T20:52:32.773Z,33.02
2019-06-26T20:55:22.899Z,32.94
2019-06-26T20:58:12.715Z,32.88
2019-06-26T21:01:02.924Z,32.79
2019-06-26T21:03:52.935Z,32.67
2019-06-26T21:06:43.060Z,32.61
2019-06-26T21:09:32.912Z,32.45
2019-06-26T21:12:22.221Z,32.35
2019-06-26T21:15:27.487Z,32.25
2019-06-26T21:18:17.536Z,32.16
2019-06-26T21:21:07.297Z,32.10
2019-06-26T21:23:57.200Z,32.06
2019-06-26T21:26:47.495Z,31.99
2019-06-26T21:29:38.814Z,31.87
2019-06-26T21:32:28.755Z,31.83
2019-06-26T21:35:20.443Z,31.79
2019-06-26T21:38:09.978Z,31.73
2019-06-26T21:40:59.751Z,31.62
2019-06-26T21:43:49.961Z,31.58
2019-06-26T21:46:39.980Z,31.52
2019-06-26T21:49:29.400Z,31.42
2019-06-26T21:52:19.396Z,31.31
2019-06-26T21:55:09.787Z,31.25
2019-06-26T21:58:18.098Z,31.20
2019-06-26T22:01:26.104Z,31.13
2019-06-26T22:04:34.103Z,31.02
2019-06-26T22:07:28.134Z,30.94
2019-06-26T22:10:38.162Z,30.83
2019-06-26T22:13:28.601Z,30.77
2019-06-26T22:16:18.996Z,30.66
2019-06-26T22:19:08.839Z,30.58
2019-06-26T22:21:58.996Z,30.47
2019-06-26T22:24:49.014Z,30.45
2019-06-26T22:27:39.015Z,30.39
2019-06-26T22:30:29.342Z,30.39
2019-06-26T22:33:19.297Z,30.35
2019-06-26T22:36:09.038Z,30.33
2019-06-26T22:38:59.060Z,30.25
2019-06-26T22:41:48.897Z,30.18
2019-06-26T22:44:39.059Z,30.12
2019-06-26T22:47:29.065Z,30.05
2019-06-26T22:50:19.047Z,29.97
2019-06-26T22:53:09.622Z,29.93
2019-06-26T22:56:07.740Z,29.89
2019-06-26T22:58:51.544Z,29.80
2019-06-26T23:01:40.904Z,29.75
2019-06-26T23:04:31.101Z,29.66
2019-06-26T23:07:21.130Z,29.54
2019-06-26T23:10:11.674Z,29.40
2019-06-26T23:13:02.006Z,29.28
2019-06-26T23:15:52.732Z,29.21
2019-06-26T23:18:42.710Z,29.14
2019-06-26T23:21:32.655Z,29.08
2019-06-26T23:24:22.650Z,29.03
2019-06-26T23:27:12.617Z,29.01
2019-06-26T23:30:02.727Z,28.98
2019-06-26T23:32:52.293Z,28.94
2019-06-26T23:35:42.496Z,28.89
2019-06-26T23:38:32.812Z,28.82
2019-06-26T23:41:22.798Z,28.73
2019-06-26T23:44:12.312Z,28.68
2019-06-26T23:47:01.918Z,28.61
2019-06-26T23:49:51.978Z,28.57
2019-06-26T23:52:41.981Z,28.55
2019-06-26T23:55:32.706Z,28.47
2019-06-26T23:58:22.557Z,28.42
